sensor_id;sensor_type;location;lat;lon;timestamp;pressure;altitude;pressure_sealevel;temperature;humidity
49044;BME280;34860;48.066;14.124;2023-01-08T00:02:03;96355.25;;;3.94;76.25
49044;BME280;34860;48.066;14.124;2023-01-08T00:04:51;96345.03;;;3.95;76.17
49044;BME280;34860;48.066;14.124;2023-01-08T00:07:39;96338.38;;;3.92;76.10
49044;BME280;34860;48.066;14.124;2023-01-08T00:10:27;96333.66;;;3.89;76.23
49044;BME280;34860;48.066;14.124;2023-01-08T00:13:16;96326.22;;;3.90;76.09
49044;BME280;34860;48.066;14.124;2023-01-08T00:16:07;96319.97;;;3.82;76.12
49044;BME280;34860;48.066;14.124;2023-01-08T00:18:55;96316.06;;;3.76;76.05
49044;BME280;34860;48.066;14.124;2023-01-08T00:21:43;96326.28;;;3.79;76.28
49044;BME280;34860;48.066;14.124;2023-01-08T00:24:31;96332.97;;;3.74;76.24
49044;BME280;34860;48.066;14.124;2023-01-08T00:27:19;96339.66;;;3.70;76.30
49044;BME280;34860;48.066;14.124;2023-01-08T00:30:10;96329.13;;;3.54;76.18
49044;BME280;34860;48.066;14.124;2023-01-08T00:32:58;96329.16;;;3.43;76.31
49044;BME280;34860;48.066;14.124;2023-01-08T00:35:46;96328.78;;;3.44;76.52
49044;BME280;34860;48.066;14.124;2023-01-08T00:38:35;96322.47;;;3.48;76.45
49044;BME280;34860;48.066;14.124;2023-01-08T00:41:23;96333.06;;;3.53;76.32
49044;BME280;34860;48.066;14.124;2023-01-08T00:44:11;96321.28;;;3.59;76.16
49044;BME280;34860;48.066;14.124;2023-01-08T00:47:00;96323.56;;;3.68;76.08
49044;BME280;34860;48.066;14.124;2023-01-08T00:49:48;96316.47;;;3.74;75.86
49044;BME280;34860;48.066;14.124;2023-01-08T00:52:36;96308.63;;;3.73;75.80
49044;BME280;34860;48.066;14.124;2023-01-08T00:55:25;96309.06;;;3.68;75.78
49044;BME280;34860;48.066;14.124;2023-01-08T00:58:14;96307.09;;;3.64;76.10
49044;BME280;34860;48.066;14.124;2023-01-08T01:01:08;96304.72;;;3.74;76.03
49044;BME280;34860;48.066;14.124;2023-01-08T01:03:57;96302.31;;;3.79;75.99
49044;BME280;34860;48.066;14.124;2023-01-08T01:06:45;96297.59;;;3.84;75.94
49044;BME280;34860;48.066;14.124;2023-01-08T01:09:33;96294.41;;;3.89;75.79
49044;BME280;34860;48.066;14.124;2023-01-08T01:12:21;96300.69;;;3.89;75.71
49044;BME280;34860;48.066;14.124;2023-01-08T01:15:11;96296.00;;;3.86;75.74
49044;BME280;34860;48.066;14.124;2023-01-08T01:18:00;96294.44;;;3.85;75.85
49044;BME280;34860;48.066;14.124;2023-01-08T01:20:49;96301.50;;;3.86;75.83
49044;BME280;34860;48.066;14.124;2023-01-08T01:23:38;96299.94;;;3.85;75.79
49044;BME280;34860;48.066;14.124;2023-01-08T01:26:26;96308.59;;;3.84;75.79
49044;BME280;34860;48.066;14.124;2023-01-08T01:29:14;96307.84;;;3.76;75.79
49044;BME280;34860;48.066;14.124;2023-01-08T01:32:02;96309.47;;;3.59;76.04
49044;BME280;34860;48.066;14.124;2023-01-08T01:34:51;96321.72;;;3.47;76.32
49044;BME280;34860;48.066;14.124;2023-01-08T01:37:41;96317.38;;;3.46;76.02
49044;BME280;34860;48.066;14.124;2023-01-08T01:40:29;96307.59;;;3.45;76.38
49044;BME280;34860;48.066;14.124;2023-01-08T01:43:32;96298.22;;;3.32;76.11
49044;BME280;34860;48.066;14.124;2023-01-08T01:46:25;96290.84;;;3.11;76.33
49044;BME280;34860;48.066;14.124;2023-01-08T01:49:20;96285.00;;;2.94;76.51
49044;BME280;34860;48.066;14.124;2023-01-08T01:52:10;96289.31;;;2.81;76.70
49044;BME280;34860;48.066;14.124;2023-01-08T01:55:00;96285.06;;;2.76;76.97
49044;BME280;34860;48.066;14.124;2023-01-08T01:57:52;96276.00;;;2.79;76.88
49044;BME280;34860;48.066;14.124;2023-01-08T02:00:45;96285.78;;;2.91;76.53
49044;BME280;34860;48.066;14.124;2023-01-08T02:03:37;96283.41;;;2.97;76.37
49044;BME280;34860;48.066;14.124;2023-01-08T02:06:34;96279.91;;;2.96;76.44
49044;BME280;34860;48.066;14.124;2023-01-08T02:09:31;96274.00;;;2.98;76.36
49044;BME280;34860;48.066;14.124;2023-01-08T02:12:31;96270.47;;;3.04;76.33
49044;BME280;34860;48.066;14.124;2023-01-08T02:15:24;96272.41;;;3.07;76.30
49044;BME280;34860;48.066;14.124;2023-01-08T02:18:17;96289.66;;;3.04;76.33
49044;BME280;34860;48.066;14.124;2023-01-08T02:21:09;96281.84;;;2.99;76.58
49044;BME280;34860;48.066;14.124;2023-01-08T02:24:02;96285.38;;;3.03;76.67
49044;BME280;34860;48.066;14.124;2023-01-08T02:26:58;96283.00;;;3.09;76.50
49044;BME280;34860;48.066;14.124;2023-01-08T02:29:47;96260.63;;;3.14;76.44
49044;BME280;34860;48.066;14.124;2023-01-08T02:32:38;96264.97;;;3.12;76.33
49044;BME280;34860;48.066;14.124;2023-01-08T02:35:33;96264.56;;;3.09;76.48
49044;BME280;34860;48.066;14.124;2023-01-08T02:38:24;96275.56;;;3.09;76.41
49044;BME280;34860;48.066;14.124;2023-01-08T02:41:13;96267.31;;;3.13;76.36
49044;BME280;34860;48.066;14.124;2023-01-08T02:44:04;96256.31;;;3.13;76.20
49044;BME280;34860;48.066;14.124;2023-01-08T02:46:56;96257.13;;;3.06;76.43
49044;BME280;34860;48.066;14.124;2023-01-08T02:49:46;96242.66;;;2.99;76.54
49044;BME280;34860;48.066;14.124;2023-01-08T02:52:39;96246.97;;;2.93;76.77
49044;BME280;34860;48.066;14.124;2023-01-08T02:55:30;96235.59;;;2.87;76.89
49044;BME280;34860;48.066;14.124;2023-01-08T02:58:22;96233.28;;;2.82;76.95
49044;BME280;34860;48.066;14.124;2023-01-08T03:01:15;96225.09;;;2.67;77.18
49044;BME280;34860;48.066;14.124;2023-01-08T03:04:08;96216.09;;;2.49;77.42
49044;BME280;34860;48.066;14.124;2023-01-08T03:06:59;96219.28;;;2.36;77.61
49044;BME280;34860;48.066;14.124;2023-01-08T03:09:48;96215.75;;;2.18;77.58
49044;BME280;34860;48.066;14.124;2023-01-08T03:12:43;96213.78;;;2.04;77.73
49044;BME280;34860;48.066;14.124;2023-01-08T03:15:35;96210.66;;;1.91;77.81
49044;BME280;34860;48.066;14.124;2023-01-08T03:18:29;96209.91;;;1.87;77.84
49044;BME280;34860;48.066;14.124;2023-01-08T03:21:20;96212.25;;;1.89;77.89
49044;BME280;34860;48.066;14.124;2023-01-08T03:24:10;96207.94;;;1.91;77.73
49044;BME280;34860;48.066;14.124;2023-01-08T03:27:02;96214.97;;;1.96;77.50
49044;BME280;34860;48.066;14.124;2023-01-08T03:29:53;96213.44;;;1.95;77.20
49044;BME280;34860;48.066;14.124;2023-01-08T03:32:46;96205.19;;;1.91;77.08
49044;BME280;34860;48.066;14.124;2023-01-08T03:35:39;96208.31;;;1.86;77.10
49044;BME280;34860;48.066;14.124;2023-01-08T03:38:31;96196.19;;;1.80;77.10
49044;BME280;34860;48.066;14.124;2023-01-08T03:41:21;96195.81;;;1.74;76.97
49044;BME280;34860;48.066;14.124;2023-01-08T03:44:11;96192.66;;;1.76;77.08
49044;BME280;34860;48.066;14.124;2023-01-08T03:46:59;96187.97;;;1.84;77.05
49044;BME280;34860;48.066;14.124;2023-01-08T03:49:49;96188.34;;;1.89;76.86
49044;BME280;34860;48.066;14.124;2023-01-08T03:52:40;96183.66;;;1.90;76.71
49044;BME280;34860;48.066;14.124;2023-01-08T03:55:28;96184.06;;;1.92;76.78
49044;BME280;34860;48.066;14.124;2023-01-08T03:58:16;96168.78;;;1.94;76.75
49044;BME280;34860;48.066;14.124;2023-01-08T04:01:04;96172.31;;;1.98;76.48
49044;BME280;34860;48.066;14.124;2023-01-08T04:03:52;96177.00;;;2.05;76.54
49044;BME280;34860;48.066;14.124;2023-01-08T04:06:40;96159.78;;;2.15;76.37
49044;BME280;34860;48.066;14.124;2023-01-08T04:09:30;96167.56;;;2.28;76.24
49044;BME280;34860;48.066;14.124;2023-01-08T04:12:18;96159.34;;;2.28;76.02
49044;BME280;34860;48.066;14.124;2023-01-08T04:15:06;96168.38;;;2.21;76.33
49044;BME280;34860;48.066;14.124;2023-01-08T04:17:55;96157.03;;;2.08;76.35
49044;BME280;34860;48.066;14.124;2023-01-08T04:20:44;96153.50;;;1.90;76.82
49044;BME280;34860;48.066;14.124;2023-01-08T04:23:33;96144.13;;;1.76;77.11
49044;BME280;34860;48.066;14.124;2023-01-08T04:26:22;96149.59;;;1.80;77.01
49044;BME280;34860;48.066;14.124;2023-01-08T04:29:10;96137.88;;;1.83;76.96
49044;BME280;34860;48.066;14.124;2023-01-08T04:31:59;96134.34;;;1.90;76.76
49044;BME280;34860;48.066;14.124;2023-01-08T04:34:47;96122.19;;;1.94;76.69
49044;BME280;34860;48.066;14.124;2023-01-08T04:37:35;96121.03;;;1.95;76.72
49044;BME280;34860;48.066;14.124;2023-01-08T04:40:23;96110.88;;;1.78;76.82
49044;BME280;34860;48.066;14.124;2023-01-08T04:43:12;96093.66;;;1.59;76.96
49044;BME280;34860;48.066;14.124;2023-01-08T04:46:02;96096.41;;;1.45;77.49
49044;BME280;34860;48.066;14.124;2023-01-08T04:48:52;96102.28;;;1.36;77.69
49044;BME280;34860;48.066;14.124;2023-01-08T04:51:40;96095.63;;;1.30;77.68
49044;BME280;34860;48.066;14.124;2023-01-08T04:54:28;96094.03;;;1.25;77.66
49044;BME280;34860;48.066;14.124;2023-01-08T04:57:16;96095.22;;;1.24;77.56
49044;BME280;34860;48.066;14.124;2023-01-08T05:00:07;96096.41;;;1.23;77.78
49044;BME280;34860;48.066;14.124;2023-01-08T05:02:55;96092.84;;;1.19;77.67
49044;BME280;34860;48.066;14.124;2023-01-08T05:05:43;96094.81;;;1.15;77.69
49044;BME280;34860;48.066;14.124;2023-01-08T05:08:32;96097.56;;;1.19;77.54
49044;BME280;34860;48.066;14.124;2023-01-08T05:11:20;96099.91;;;1.20;77.39
49044;BME280;34860;48.066;14.124;2023-01-08T05:14:08;96105.00;;;1.29;76.76
49044;BME280;34860;48.066;14.124;2023-01-08T05:16:57;96100.69;;;1.35;77.10
49044;BME280;34860;48.066;14.124;2023-01-08T05:19:45;96103.06;;;1.33;77.02
49044;BME280;34860;48.066;14.124;2023-01-08T05:22:33;96100.72;;;1.28;76.81
49044;BME280;34860;48.066;14.124;2023-01-08T05:25:21;96104.59;;;1.23;76.72
49044;BME280;34860;48.066;14.124;2023-01-08T05:28:09;96099.13;;;1.23;76.99
49044;BME280;34860;48.066;14.124;2023-01-08T05:30:58;96094.06;;;1.18;76.94
49044;BME280;34860;48.066;14.124;2023-01-08T05:33:47;96099.50;;;1.15;76.84
49044;BME280;34860;48.066;14.124;2023-01-08T05:36:37;96093.63;;;1.16;76.93
49044;BME280;34860;48.066;14.124;2023-01-08T05:39:25;96092.09;;;1.19;76.86
49044;BME280;34860;48.066;14.124;2023-01-08T05:42:13;96107.34;;;1.23;76.89
49044;BME280;34860;48.066;14.124;2023-01-08T05:45:01;96104.22;;;1.21;76.82
49044;BME280;34860;48.066;14.124;2023-01-08T05:47:49;96105.00;;;1.25;76.74
49044;BME280;34860;48.066;14.124;2023-01-08T05:50:38;96119.09;;;1.35;76.72
49044;BME280;34860;48.066;14.124;2023-01-08T05:53:26;96105.78;;;1.40;76.58
49044;BME280;34860;48.066;14.124;2023-01-08T05:56:14;96108.91;;;1.46;76.55
49044;BME280;34860;48.066;14.124;2023-01-08T05:59:02;96112.84;;;1.52;76.37
49044;BME280;34860;48.066;14.124;2023-01-08T06:01:50;96108.53;;;1.58;76.69
49044;BME280;34860;48.066;14.124;2023-01-08T06:04:38;96105.41;;;1.63;76.46
49044;BME280;34860;48.066;14.124;2023-01-08T06:07:28;96102.66;;;1.67;76.29
49044;BME280;34860;48.066;14.124;2023-01-08T06:10:16;96095.59;;;1.62;76.45
49044;BME280;34860;48.066;14.124;2023-01-08T06:13:06;96086.63;;;1.58;76.76
49044;BME280;34860;48.066;14.124;2023-01-08T06:15:54;96090.56;;;1.50;76.89
49044;BME280;34860;48.066;14.124;2023-01-08T06:18:42;96076.47;;;1.37;77.18
49044;BME280;34860;48.066;14.124;2023-01-08T06:21:30;96072.94;;;1.30;77.37
49044;BME280;34860;48.066;14.124;2023-01-08T06:24:20;96074.88;;;1.22;77.49
49044;BME280;34860;48.066;14.124;2023-01-08T06:27:08;96072.13;;;1.15;77.57
49044;BME280;34860;48.066;14.124;2023-01-08T06:29:56;96060.41;;;1.03;77.68
49044;BME280;34860;48.066;14.124;2023-01-08T06:32:44;96055.31;;;0.95;77.77
49044;BME280;34860;48.066;14.124;2023-01-08T06:35:32;96058.03;;;0.87;77.90
49044;BME280;34860;48.066;14.124;2023-01-08T06:38:20;96040.81;;;0.80;77.95
49044;BME280;34860;48.066;14.124;2023-01-08T06:41:10;96038.09;;;0.76;78.07
49044;BME280;34860;48.066;14.124;2023-01-08T06:43:58;96041.59;;;0.69;77.99
49044;BME280;34860;48.066;14.124;2023-01-08T06:46:46;96046.66;;;0.67;78.14
49044;BME280;34860;48.066;14.124;2023-01-08T06:49:34;96046.66;;;0.67;77.95
49044;BME280;34860;48.066;14.124;2023-01-08T06:52:22;96042.34;;;0.59;77.89
49044;BME280;34860;48.066;14.124;2023-01-08T06:55:10;96044.28;;;0.51;77.90
49044;BME280;34860;48.066;14.124;2023-01-08T06:57:59;96054.03;;;0.45;78.00
49044;BME280;34860;48.066;14.124;2023-01-08T07:00:47;96055.94;;;0.41;78.02
49044;BME280;34860;48.066;14.124;2023-01-08T07:03:35;96055.94;;;0.38;78.02
49044;BME280;34860;48.066;14.124;2023-01-08T07:06:23;96054.38;;;0.33;78.06
49044;BME280;34860;48.066;14.124;2023-01-08T07:09:12;96064.53;;;0.32;78.12
49044;BME280;34860;48.066;14.124;2023-01-08T07:12:00;96072.72;;;0.32;77.73
49044;BME280;34860;48.066;14.124;2023-01-08T07:14:50;96068.41;;;0.28;77.95
49044;BME280;34860;48.066;14.124;2023-01-08T07:17:38;96067.97;;;0.22;77.85
49044;BME280;34860;48.066;14.124;2023-01-08T07:20:26;96076.16;;;0.18;77.97
49044;BME280;34860;48.066;14.124;2023-01-08T07:23:14;96073.06;;;0.20;77.88
49044;BME280;34860;48.066;14.124;2023-01-08T07:26:03;96082.06;;;0.28;77.81
49044;BME280;34860;48.066;14.124;2023-01-08T07:28:51;96086.03;;;0.41;77.55
49044;BME280;34860;48.066;14.124;2023-01-08T07:31:41;96088.41;;;0.53;77.38
49044;BME280;34860;48.066;14.124;2023-01-08T07:34:29;96095.09;;;0.63;77.26
49044;BME280;34860;48.066;14.124;2023-01-08T07:37:18;96081.06;;;0.72;77.03
49044;BME280;34860;48.066;14.124;2023-01-08T07:40:07;96062.31;;;0.78;77.12
49044;BME280;34860;48.066;14.124;2023-01-08T07:42:59;96063.13;;;0.82;77.09
49044;BME280;34860;48.066;14.124;2023-01-08T07:45:47;96070.53;;;0.88;77.00
49044;BME280;34860;48.066;14.124;2023-01-08T07:48:36;96049.03;;;0.94;77.26
49044;BME280;34860;48.066;14.124;2023-01-08T07:51:24;96039.66;;;0.99;77.15
49044;BME280;34860;48.066;14.124;2023-01-08T07:54:12;96038.13;;;1.01;77.23
49044;BME280;34860;48.066;14.124;2023-01-08T07:57:01;96037.72;;;1.06;77.25
49044;BME280;34860;48.066;14.124;2023-01-08T07:59:49;96027.16;;;1.08;77.09
49044;BME280;34860;48.066;14.124;2023-01-08T08:02:37;96016.63;;;1.03;77.34
49044;BME280;34860;48.066;14.124;2023-01-08T08:05:27;96008.81;;;0.98;77.60
49044;BME280;34860;48.066;14.124;2023-01-08T08:08:15;96009.19;;;1.00;77.61
49044;BME280;34860;48.066;14.124;2023-01-08T08:11:03;96014.28;;;1.02;77.55
49044;BME280;34860;48.066;14.124;2023-01-08T08:13:51;96009.97;;;1.04;77.54
49044;BME280;34860;48.066;14.124;2023-01-08T08:16:42;96006.84;;;1.13;77.52
49044;BME280;34860;48.066;14.124;2023-01-08T08:19:30;96013.50;;;1.19;77.45
49044;BME280;34860;48.066;14.124;2023-01-08T08:22:19;96011.16;;;1.25;77.34
49044;BME280;34860;48.066;14.124;2023-01-08T08:25:08;96033.03;;;1.32;77.27
49044;BME280;34860;48.066;14.124;2023-01-08T08:27:56;96052.19;;;1.43;77.13
49044;BME280;34860;48.066;14.124;2023-01-08T08:30:45;96057.66;;;1.57;76.86
49044;BME280;34860;48.066;14.124;2023-01-08T08:33:33;96071.34;;;1.61;76.80
49044;BME280;34860;48.066;14.124;2023-01-08T08:36:26;96065.50;;;1.66;76.74
49044;BME280;34860;48.066;14.124;2023-01-08T08:39:16;96061.16;;;1.72;76.66
49044;BME280;34860;48.066;14.124;2023-01-08T08:42:04;96062.34;;;1.82;76.63
49044;BME280;34860;48.066;14.124;2023-01-08T08:44:52;96067.00;;;1.96;76.62
49044;BME280;34860;48.066;14.124;2023-01-08T08:47:40;96081.88;;;1.98;76.38
49044;BME280;34860;48.066;14.124;2023-01-08T08:50:28;96079.13;;;1.91;76.46
49044;BME280;34860;48.066;14.124;2023-01-08T08:53:16;96054.50;;;1.95;76.50
49044;BME280;34860;48.066;14.124;2023-01-08T08:56:06;96032.56;;;1.98;76.65
49044;BME280;34860;48.066;14.124;2023-01-08T08:58:54;96023.53;;;2.02;76.75
49044;BME280;34860;48.066;14.124;2023-01-08T09:01:43;96025.84;;;2.10;76.78
49044;BME280;34860;48.066;14.124;2023-01-08T09:04:32;96026.59;;;2.22;76.71
49044;BME280;34860;48.066;14.124;2023-01-08T09:07:20;96027.72;;;2.35;76.58
49044;BME280;34860;48.066;14.124;2023-01-08T09:10:09;96042.19;;;2.43;76.52
49044;BME280;34860;48.066;14.124;2023-01-08T09:12:58;96042.59;;;2.41;76.76
49044;BME280;34860;48.066;14.124;2023-01-08T09:15:46;96052.75;;;2.41;76.66
49044;BME280;34860;48.066;14.124;2023-01-08T09:18:34;96071.59;;;2.35;76.82
49044;BME280;34860;48.066;14.124;2023-01-08T09:21:22;96068.84;;;2.39;77.05
49044;BME280;34860;48.066;14.124;2023-01-08T09:24:10;96078.22;;;2.45;76.96
49044;BME280;34860;48.066;14.124;2023-01-08T09:26:58;96075.88;;;2.43;76.69
49044;BME280;34860;48.066;14.124;2023-01-08T09:29:48;96082.50;;;2.49;76.69
49044;BME280;34860;48.066;14.124;2023-01-08T09:32:37;96080.91;;;2.52;76.85
49044;BME280;34860;48.066;14.124;2023-01-08T09:35:25;96073.47;;;2.56;76.86
49044;BME280;34860;48.066;14.124;2023-01-08T09:38:13;96061.28;;;2.64;76.69
49044;BME280;34860;48.066;14.124;2023-01-08T09:41:04;96053.41;;;2.70;76.74
49044;BME280;34860;48.066;14.124;2023-01-08T09:43:55;96042.03;;;2.71;76.91
49044;BME280;34860;48.066;14.124;2023-01-08T09:46:45;96047.50;;;2.75;76.87
49044;BME280;34860;48.066;14.124;2023-01-08T09:49:38;96045.91;;;2.81;76.95
49044;BME280;34860;48.066;14.124;2023-01-08T09:52:28;96046.66;;;2.89;76.84
49044;BME280;34860;48.066;14.124;2023-01-08T09:55:18;96054.44;;;2.94;76.63
49044;BME280;34860;48.066;14.124;2023-01-08T09:58:14;96067.03;;;2.88;76.84
49044;BME280;34860;48.066;14.124;2023-01-08T10:01:10;96067.41;;;2.94;76.84
49044;BME280;34860;48.066;14.124;2023-01-08T10:04:05;96074.81;;;3.00;76.70
49044;BME280;34860;48.066;14.124;2023-01-08T10:06:55;96072.47;;;2.99;76.77
49044;BME280;34860;48.066;14.124;2023-01-08T10:09:43;96078.69;;;3.03;76.87
49044;BME280;34860;48.066;14.124;2023-01-08T10:12:32;96079.06;;;3.08;76.75
49044;BME280;34860;48.066;14.124;2023-01-08T10:15:21;96071.97;;;3.11;76.69
49044;BME280;34860;48.066;14.124;2023-01-08T10:18:11;96076.66;;;3.14;76.72
49044;BME280;34860;48.066;14.124;2023-01-08T10:21:02;96077.03;;;3.20;76.60
49044;BME280;34860;48.066;14.124;2023-01-08T10:23:51;96090.28;;;3.28;76.69
49044;BME280;34860;48.066;14.124;2023-01-08T10:26:39;96079.66;;;3.34;76.62
49044;BME280;34860;48.066;14.124;2023-01-08T10:29:27;96092.16;;;3.42;76.61
49044;BME280;34860;48.066;14.124;2023-01-08T10:32:17;96092.53;;;3.48;76.46
49044;BME280;34860;48.066;14.124;2023-01-08T10:35:15;96095.28;;;3.44;76.64
49044;BME280;34860;48.066;14.124;2023-01-08T10:38:05;96091.75;;;3.44;76.73
49044;BME280;34860;48.066;14.124;2023-01-08T10:40:55;96089.78;;;3.44;76.71
49044;BME280;34860;48.066;14.124;2023-01-08T10:43:48;96096.81;;;3.53;76.64
49044;BME280;34860;48.066;14.124;2023-01-08T10:46:41;96087.44;;;3.43;76.76
49044;BME280;34860;48.066;14.124;2023-01-08T10:49:32;96092.63;;;3.30;77.08
49044;BME280;34860;48.066;14.124;2023-01-08T10:52:26;96093.84;;;3.29;77.18
49044;BME280;34860;48.066;14.124;2023-01-08T10:55:23;96098.94;;;3.31;77.18
49044;BME280;34860;48.066;14.124;2023-01-08T10:58:12;96082.78;;;3.40;76.85
49044;BME280;34860;48.066;14.124;2023-01-08T11:01:08;96089.78;;;3.44;76.75
49044;BME280;34860;48.066;14.124;2023-01-08T11:03:58;96095.28;;;3.44;76.79
49044;BME280;34860;48.066;14.124;2023-01-08T11:06:48;96091.34;;;3.45;76.79
49044;BME280;34860;48.066;14.124;2023-01-08T11:09:44;96095.22;;;3.52;76.69
49044;BME280;34860;48.066;14.124;2023-01-08T11:12:36;96085.75;;;3.60;76.80
49044;BME280;34860;48.066;14.124;2023-01-08T11:15:35;96087.69;;;3.63;76.81
49044;BME280;34860;48.066;14.124;2023-01-08T11:18:26;96078.66;;;3.62;76.72
49044;BME280;34860;48.066;14.124;2023-01-08T11:21:19;96063.47;;;3.47;76.92
49044;BME280;34860;48.066;14.124;2023-01-08T11:24:14;96063.59;;;3.33;77.30
49044;BME280;34860;48.066;14.124;2023-01-08T11:27:08;96064.41;;;3.30;77.37
49044;BME280;34860;48.066;14.124;2023-01-08T11:30:05;96074.69;;;3.18;77.47
49044;BME280;34860;48.066;14.124;2023-01-08T11:32:59;96071.56;;;3.16;77.59
49044;BME280;34860;48.066;14.124;2023-01-08T11:35:52;96039.81;;;3.12;77.52
49044;BME280;34860;48.066;14.124;2023-01-08T11:38:43;96026.09;;;3.12;77.65
49044;BME280;34860;48.066;14.124;2023-01-08T11:41:42;96034.34;;;3.12;77.49
49044;BME280;34860;48.066;14.124;2023-01-08T11:44:38;96032.41;;;3.08;77.54
49044;BME280;34860;48.066;14.124;2023-01-08T11:47:49;96035.13;;;3.08;77.79
49044;BME280;34860;48.066;14.124;2023-01-08T11:50:55;96032.00;;;3.10;77.71
49044;BME280;34860;48.066;14.124;2023-01-08T11:53:54;96027.25;;;3.14;77.59
49044;BME280;34860;48.066;14.124;2023-01-08T11:56:56;96017.47;;;3.13;77.59
49044;BME280;34860;48.066;14.124;2023-01-08T11:59:56;96021.72;;;3.21;77.81
49044;BME280;34860;48.066;14.124;2023-01-08T12:02:53;96009.09;;;3.27;77.41
49044;BME280;34860;48.066;14.124;2023-01-08T12:05:45;96020.06;;;3.31;77.37
49044;BME280;34860;48.066;14.124;2023-01-08T12:08:41;96027.09;;;3.36;77.28
49044;BME280;34860;48.066;14.124;2023-01-08T12:11:38;96021.50;;;3.43;77.15
49044;BME280;34860;48.066;14.124;2023-01-08T12:14:38;96024.69;;;3.38;77.26
49044;BME280;34860;48.066;14.124;2023-01-08T12:17:40;96021.91;;;3.45;77.23
49044;BME280;34860;48.066;14.124;2023-01-08T12:20:37;96022.75;;;3.35;77.27
49044;BME280;34860;48.066;14.124;2023-01-08T12:26:32;96022.06;;;3.23;77.21
49044;BME280;34860;48.066;14.124;2023-01-08T12:29:49;96009.16;;;3.20;77.14
49044;BME280;34860;48.066;14.124;2023-01-08T12:32:42;96001.75;;;3.14;77.11
49044;BME280;34860;48.066;14.124;2023-01-08T12:35:37;95995.03;;;3.22;77.10
49044;BME280;34860;48.066;14.124;2023-01-08T12:38:29;95995.75;;;3.30;77.04
49044;BME280;34860;48.066;14.124;2023-01-08T12:41:18;95995.31;;;3.35;77.18
49044;BME280;34860;48.066;14.124;2023-01-08T12:44:09;95987.41;;;3.40;77.15
49044;BME280;34860;48.066;14.124;2023-01-08T12:46:59;95996.78;;;3.43;77.14
49044;BME280;34860;48.066;14.124;2023-01-08T12:49:55;96000.34;;;3.43;77.07
49044;BME280;34860;48.066;14.124;2023-01-08T12:52:52;95993.63;;;3.48;76.89
49044;BME280;34860;48.066;14.124;2023-01-08T12:55:46;95988.84;;;3.56;76.85
49044;BME280;34860;48.066;14.124;2023-01-08T12:58:58;95989.53;;;3.63;76.73
49044;BME280;34860;48.066;14.124;2023-01-08T13:01:55;95990.25;;;3.71;76.43
49044;BME280;34860;48.066;14.124;2023-01-08T13:04:45;95998.38;;;3.82;76.40
49044;BME280;34860;48.066;14.124;2023-01-08T13:07:40;95974.31;;;3.93;76.38
49044;BME280;34860;48.066;14.124;2023-01-08T13:10:34;95980.47;;;4.05;76.23
49044;BME280;34860;48.066;14.124;2023-01-08T13:13:26;95977.66;;;4.08;76.37
49044;BME280;34860;48.066;14.124;2023-01-08T13:16:19;95969.75;;;4.14;76.30
49044;BME280;34860;48.066;14.124;2023-01-08T13:19:22;95965.84;;;4.11;76.26
49044;BME280;34860;48.066;14.124;2023-01-08T13:22:22;95967.81;;;4.11;76.47
49044;BME280;34860;48.066;14.124;2023-01-08T13:25:27;95972.16;;;4.12;76.41
49044;BME280;34860;48.066;14.124;2023-01-08T13:28:26;95970.91;;;4.16;76.42
49044;BME280;34860;48.066;14.124;2023-01-08T13:31:25;95970.91;;;4.16;76.32
49044;BME280;34860;48.066;14.124;2023-01-08T13:34:34;95969.81;;;4.10;76.73
49044;BME280;34860;48.066;14.124;2023-01-08T13:37:23;95971.84;;;4.03;76.93
49044;BME280;34860;48.066;14.124;2023-01-08T13:40:36;95976.19;;;4.00;76.93
49044;BME280;34860;48.066;14.124;2023-01-08T13:43:29;95991.97;;;3.96;77.19
49044;BME280;34860;48.066;14.124;2023-01-08T13:46:19;95995.06;;;3.98;76.98
49044;BME280;34860;48.066;14.124;2023-01-08T13:49:09;95984.09;;;3.98;77.07
49044;BME280;34860;48.066;14.124;2023-01-08T13:52:04;95984.56;;;3.89;77.12
49044;BME280;34860;48.066;14.124;2023-01-08T13:54:52;95990.09;;;3.86;77.16
49044;BME280;34860;48.066;14.124;2023-01-08T13:57:43;95990.09;;;3.86;77.24
49044;BME280;34860;48.066;14.124;2023-01-08T14:00:43;95985.06;;;3.80;77.33
49044;BME280;34860;48.066;14.124;2023-01-08T14:03:34;95967.50;;;3.71;77.34
49044;BME280;34860;48.066;14.124;2023-01-08T14:06:24;95968.72;;;3.66;77.49
49044;BME280;34860;48.066;14.124;2023-01-08T14:09:20;95955.03;;;3.62;77.26
49044;BME280;34860;48.066;14.124;2023-01-08T14:12:10;95957.44;;;3.57;77.55
49044;BME280;34860;48.066;14.124;2023-01-08T14:15:00;95952.75;;;3.54;77.36
49044;BME280;34860;48.066;14.124;2023-01-08T14:17:52;95959.06;;;3.51;77.41
49044;BME280;34860;48.066;14.124;2023-01-08T14:20:42;95960.66;;;3.48;77.38
49044;BME280;34860;48.066;14.124;2023-01-08T14:23:35;95972.84;;;3.47;77.45
49044;BME280;34860;48.066;14.124;2023-01-08T14:26:26;95961.03;;;3.50;77.27
49044;BME280;34860;48.066;14.124;2023-01-08T14:29:19;95957.09;;;3.51;77.10
49044;BME280;34860;48.066;14.124;2023-01-08T14:32:15;95970.03;;;3.51;77.25
49044;BME280;34860;48.066;14.124;2023-01-08T14:35:06;95965.34;;;3.51;77.31
49044;BME280;34860;48.066;14.124;2023-01-08T14:37:56;95962.97;;;3.53;77.14
49044;BME280;34860;48.066;14.124;2023-01-08T14:40:49;95946.53;;;3.50;77.20
49044;BME280;34860;48.066;14.124;2023-01-08T14:43:45;95937.47;;;3.49;77.15
49044;BME280;34860;48.066;14.124;2023-01-08T14:46:35;95942.56;;;3.51;77.24
49044;BME280;34860;48.066;14.124;2023-01-08T14:49:26;95929.63;;;3.51;77.21
49044;BME280;34860;48.066;14.124;2023-01-08T14:52:16;95920.22;;;3.49;77.17
49044;BME280;34860;48.066;14.124;2023-01-08T14:55:12;95919.06;;;3.46;77.23
49044;BME280;34860;48.066;14.124;2023-01-08T14:58:01;95918.66;;;3.48;77.16
49044;BME280;34860;48.066;14.124;2023-01-08T15:00:51;95904.53;;;3.49;77.17
49044;BME280;34860;48.066;14.124;2023-01-08T15:03:43;95913.97;;;3.48;77.12
49044;BME280;34860;48.066;14.124;2023-01-08T15:06:32;95918.31;;;3.45;77.21
49044;BME280;34860;48.066;14.124;2023-01-08T15:09:24;95910.47;;;3.44;77.24